createdAt,value
2022-11-04T00:01:23.018Z,99276.31
2022-11-04T00:05:26.379Z,99291.53
2022-11-04T00:09:31.531Z,99298.09
2022-11-04T00:13:35.309Z,99308.69
2022-11-04T00:17:38.909Z,99323.81
2022-11-04T00:21:59.931Z,99332.28
2022-11-04T00:26:20.454Z,99339.44
2022-11-04T00:30:25.261Z,99355.75
2022-11-04T00:34:28.609Z,99347.19
2022-11-04T00:38:32.121Z,99354.56
2022-11-04T00:42:35.919Z,99375.25
2022-11-04T00:46:40.640Z,99383.06
2022-11-04T00:50:44.048Z,99405.53
2022-11-04T00:54:47.559Z,99402.44
2022-11-04T00:58:51.125Z,99399.97
2022-11-04T01:02:57.077Z,99395.44
2022-11-04T01:07:01.543Z,99392.59
2022-11-04T01:11:05.660Z,99390.19
2022-11-04T01:15:10.056Z,99384.00
2022-11-04T01:19:14.845Z,99394.22
2022-11-04T01:23:18.295Z,99393.00
2022-11-04T01:27:21.776Z,99398.72
2022-11-04T01:31:27.760Z,99400.97
2022-11-04T01:35:32.858Z,99405.72
2022-11-04T01:39:36.239Z,99417.47
2022-11-04T01:43:46.222Z,99416.47
2022-11-04T01:47:56.219Z,99424.22
2022-11-04T01:52:04.766Z,99421.84
2022-11-04T01:56:12.221Z,99425.00
2022-11-04T02:00:17.107Z,99426.78
2022-11-04T02:04:27.672Z,99427.81
2022-11-04T02:08:32.802Z,99437.53
2022-11-04T02:12:51.295Z,99429.22
2022-11-04T02:17:02.222Z,99421.69
2022-11-04T02:21:41.227Z,99427.00
2022-11-04T02:26:18.297Z,99424.66
2022-11-04T02:30:23.561Z,99429.84
2022-11-04T02:34:35.266Z,99426.34
2022-11-04T02:38:45.995Z,99428.53
2022-11-04T02:42:56.728Z,99419.38
2022-11-04T02:47:06.190Z,99407.72
2022-11-04T02:51:17.376Z,99411.66
2022-11-04T02:55:24.791Z,99402.72
2022-11-04T02:59:35.357Z,99407.88
2022-11-04T03:03:43.435Z,99398.94
2022-11-04T03:07:49.251Z,99408.63
2022-11-04T03:12:03.015Z,99404.72
2022-11-04T03:16:12.375Z,99405.91
2022-11-04T03:20:22.193Z,99396.53
2022-11-04T03:24:26.169Z,99404.56
2022-11-04T03:28:38.679Z,99405.03
2022-11-04T03:32:59.106Z,99399.25
2022-11-04T03:37:04.103Z,99407.84
2022-11-04T03:41:13.946Z,99402.59
2022-11-04T03:45:17.667Z,99410.13
2022-11-04T03:49:22.584Z,99415.16
2022-11-04T03:53:29.637Z,99407.91
2022-11-04T03:57:44.339Z,99412.44
2022-11-04T04:01:54.052Z,99405.31
2022-11-04T04:06:05.404Z,99399.06
2022-11-04T04:10:35.007Z,99395.97
2022-11-04T04:14:44.286Z,99389.28
2022-11-04T04:18:55.797Z,99394.41
2022-11-04T04:23:28.655Z,99396.03
2022-11-04T04:27:34.159Z,99404.38
2022-11-04T04:31:52.716Z,99412.38
2022-11-04T04:35:58.307Z,99411.25
2022-11-04T04:40:25.109Z,99407.13
2022-11-04T04:44:47.905Z,99418.44
2022-11-04T04:48:51.430Z,99424.28
2022-11-04T04:52:57.735Z,99440.91
2022-11-04T04:57:01.109Z,99438.41
2022-11-04T05:01:06.333Z,99441.00
2022-11-04T05:05:10.504Z,99441.09
2022-11-04T05:09:14.086Z,99448.03
2022-11-04T05:13:30.337Z,99442.81
2022-11-04T05:17:35.119Z,99456.84
2022-11-04T05:21:38.600Z,99450.94
2022-11-04T05:25:42.933Z,99457.47
2022-11-04T05:29:46.285Z,99454.38
2022-11-04T05:33:51.169Z,99457.59
2022-11-04T05:37:56.576Z,99459.50
2022-11-04T05:41:59.933Z,99456.59
2022-11-04T05:46:04.063Z,99452.44
2022-11-04T05:50:09.751Z,99475.78
2022-11-04T05:54:13.113Z,99469.22
2022-11-04T05:58:16.416Z,99468.53
2022-11-04T06:02:19.869Z,99472.94
2022-11-04T06:06:25.935Z,99474.81
2022-11-04T06:10:29.370Z,99477.38
2022-11-04T06:14:32.790Z,99477.19
2022-11-04T06:18:36.259Z,99485.78
2022-11-04T06:22:41.253Z,99491.41
2022-11-04T06:26:44.635Z,99493.69
2022-11-04T06:30:48.233Z,99499.75
2022-11-04T06:34:51.583Z,99498.22
2022-11-04T06:39:01.409Z,99497.09
2022-11-04T06:43:07.988Z,99498.53
2022-11-04T06:47:11.637Z,99505.63
2022-11-04T06:51:15.021Z,99517.31
2022-11-04T06:55:20.291Z,99516.84
2022-11-04T06:59:26.449Z,99508.72
2022-11-04T07:03:30.243Z,99520.22
2022-11-04T07:07:33.621Z,99520.91
2022-11-04T07:11:38.571Z,99530.84
2022-11-04T07:15:42.184Z,99532.25
2022-11-04T07:19:45.492Z,99533.47
2022-11-04T07:23:48.858Z,99539.72
2022-11-04T07:27:55.500Z,99546.72
2022-11-04T07:32:01.526Z,99541.13
2022-11-04T07:36:06.536Z,99541.06
2022-11-04T07:40:11.201Z,99556.06
2022-11-04T07:44:16.074Z,99562.72
2022-11-04T07:48:19.516Z,99563.56
2022-11-04T07:52:23.213Z,99576.47
2022-11-04T07:56:27.321Z,99578.94
2022-11-04T08:00:32.046Z,99580.94
2022-11-04T08:04:35.372Z,99588.22
2022-11-04T08:08:38.917Z,99601.88
2022-11-04T08:12:42.309Z,99602.03
2022-11-04T08:16:47.339Z,99606.59
2022-11-04T08:20:51.764Z,99615.72
2022-11-04T08:24:55.201Z,99609.97
2022-11-04T08:28:59.382Z,99616.66
2022-11-04T08:33:05.446Z,99603.13
2022-11-04T08:37:09.130Z,99617.97
2022-11-04T08:41:15.213Z,99616.56
2022-11-04T08:45:19.043Z,99608.00
2022-11-04T08:49:23.864Z,99598.81
2022-11-04T08:53:27.830Z,99581.91
2022-11-04T08:57:31.803Z,99567.78
2022-11-04T09:01:37.440Z,99539.53
2022-11-04T09:05:45.163Z,99543.28
2022-11-04T09:09:48.705Z,99555.91
2022-11-04T09:13:53.276Z,99565.31
2022-11-04T09:17:56.689Z,99578.00
2022-11-04T09:22:01.551Z,99584.53
2022-11-04T09:26:07.224Z,99601.44
2022-11-04T09:30:12.430Z,99608.09
2022-11-04T09:34:15.958Z,99602.88
2022-11-04T09:38:20.813Z,99622.50
2022-11-04T09:42:39.327Z,99614.31
2022-11-04T09:46:43.750Z,99612.97
2022-11-04T09:50:51.767Z,99607.28
2022-11-04T09:55:03.393Z,99612.84
2022-11-04T09:59:07.699Z,99621.47
2022-11-04T10:03:25.244Z,99607.44
2022-11-04T10:07:45.757Z,99581.34
2022-11-04T10:11:55.069Z,99573.06
2022-11-04T10:16:05.451Z,99559.50
2022-11-04T10:20:18.076Z,99568.09
2022-11-04T10:24:25.247Z,99577.34
2022-11-04T10:28:36.101Z,99568.06
2022-11-04T10:32:41.475Z,99569.94
2022-11-04T10:36:48.118Z,99584.63
2022-11-04T10:40:52.150Z,99587.34
2022-11-04T10:44:56.760Z,99603.75
2022-11-04T10:49:02.920Z,99605.00
2022-11-04T10:53:12.636Z,99600.41
2022-11-04T10:57:20.444Z,99614.38
2022-11-04T11:01:26.265Z,99608.44
2022-11-04T11:05:29.863Z,99623.69
2022-11-04T11:09:34.328Z,99617.31
2022-11-04T11:13:38.628Z,99625.47
2022-11-04T11:17:44.889Z,99636.75
2022-11-04T11:21:49.871Z,99635.50
2022-11-04T11:25:53.143Z,99640.69
2022-11-04T11:29:56.379Z,99647.34
2022-11-04T11:34:03.063Z,99661.78
2022-11-04T11:38:07.276Z,99684.31
2022-11-04T11:42:16.138Z,99695.00
2022-11-04T11:46:23.227Z,99710.72
2022-11-04T11:50:31.360Z,99718.31
2022-11-04T11:54:37.695Z,99728.50
2022-11-04T12:03:15.141Z,99733.09
2022-11-04T12:11:54.961Z,99741.34
2022-11-04T12:16:10.642Z,99733.63
2022-11-04T12:20:26.359Z,99733.97
2022-11-04T12:24:35.934Z,99732.81
2022-11-04T12:28:42.469Z,99731.09
2022-11-04T12:32:55.224Z,99733.19
2022-11-04T12:37:07.462Z,99730.84
2022-11-04T12:41:41.825Z,99715.41
2022-11-04T12:45:49.094Z,99732.63
2022-11-04T12:50:03.738Z,99758.72
2022-11-04T12:54:18.456Z,99782.38
2022-11-04T12:58:35.272Z,99783.47
2022-11-04T13:02:42.168Z,99796.09
2022-11-04T13:06:48.754Z,99794.97
2022-11-04T13:10:54.613Z,99788.88
2022-11-04T13:15:02.579Z,99796.63
2022-11-04T13:19:06.950Z,99796.59
2022-11-04T13:23:16.482Z,99788.47
2022-11-04T13:27:20.674Z,99803.38
2022-11-04T13:31:31.579Z,99796.06
2022-11-04T13:35:39.319Z,99797.69
2022-11-04T13:39:43.884Z,99800.94
2022-11-04T13:43:50.411Z,99795.16
2022-11-04T13:47:56.597Z,99795.78
2022-11-04T13:52:06.960Z,99788.97
2022-11-04T13:56:32.259Z,99798.31
2022-11-04T14:00:37.522Z,99793.91
2022-11-04T14:04:43.377Z,99776.44
2022-11-04T14:09:01.452Z,99783.13
2022-11-04T14:13:19.544Z,99783.66
2022-11-04T14:17:41.771Z,99777.53
2022-11-04T14:22:07.999Z,99794.69
2022-11-04T14:26:13.960Z,99786.78
2022-11-04T14:30:34.538Z,99803.56
2022-11-04T14:34:40.914Z,99807.25
2022-11-04T14:38:45.992Z,99813.97
2022-11-04T14:42:51.260Z,99827.50
2022-11-04T14:46:56.945Z,99845.38
2022-11-04T14:51:00.389Z,99850.63
2022-11-04T14:55:08.367Z,99874.28
2022-11-04T14:59:22.957Z,99905.72
2022-11-04T15:04:09.089Z,99922.94
2022-11-04T15:07:51.746Z,99944.44
2022-11-04T15:12:29.669Z,99941.38
2022-11-04T15:16:33.083Z,99953.28
2022-11-04T15:20:42.198Z,99971.84
2022-11-04T15:24:46.061Z,99965.75
2022-11-04T15:28:52.395Z,99967.28
2022-11-04T15:32:58.187Z,99978.88
2022-11-04T15:37:05.522Z,99994.84
2022-11-04T15:41:26.746Z,99997.84
2022-11-04T15:45:37.177Z,100007.94
2022-11-04T15:49:40.713Z,100011.84
2022-11-04T15:53:52.889Z,100017.72
2022-11-04T15:57:57.010Z,100025.22
2022-11-04T16:02:04.439Z,100032.91
2022-11-04T16:06:10.391Z,100040.94
2022-11-04T16:10:26.349Z,100048.53
2022-11-04T16:14:31.372Z,100056.91
2022-11-04T16:18:39.267Z,100067.00
2022-11-04T16:22:45.993Z,100072.91
2022-11-04T16:26:50.167Z,100082.50
2022-11-04T16:30:58.631Z,100079.31
2022-11-04T16:35:15.338Z,100081.28
2022-11-04T16:39:19.358Z,100083.59
2022-11-04T16:43:23.096Z,100096.06
2022-11-04T16:47:28.554Z,100104.59
2022-11-04T16:51:34.728Z,100111.69
2022-11-04T16:55:42.149Z,100111.16
2022-11-04T16:59:45.515Z,100120.25
2022-11-04T17:03:49.932Z,100123.88
2022-11-04T17:07:58.846Z,100129.34
2022-11-04T17:12:08.323Z,100128.72
2022-11-04T17:16:14.284Z,100131.91
2022-11-04T17:20:19.776Z,100143.91
2022-11-04T17:24:24.567Z,100142.22
2022-11-04T17:28:28.041Z,100151.06
2022-11-04T17:32:31.683Z,100160.31
2022-11-04T17:36:35.583Z,100163.75
2022-11-04T17:40:55.265Z,100165.00
2022-11-04T17:44:58.845Z,100169.66
2022-11-04T17:49:02.919Z,100159.16
2022-11-04T17:53:06.813Z,100166.13
2022-11-04T17:57:11.812Z,100167.78
2022-11-04T18:01:17.430Z,100178.59
2022-11-04T18:05:20.969Z,100173.16
2022-11-04T18:09:24.588Z,100176.13
2022-11-04T18:13:29.916Z,100188.31
2022-11-04T18:17:37.319Z,100191.91
2022-11-04T18:21:40.988Z,100209.13
2022-11-04T18:25:50.467Z,100211.88
2022-11-04T18:29:55.664Z,100219.25
2022-11-04T18:34:00.895Z,100224.09
2022-11-04T18:38:04.469Z,100228.25
2022-11-04T18:42:08.093Z,100219.88
2022-11-04T18:46:15.865Z,100226.84
2022-11-04T18:50:19.567Z,100221.19
2022-11-04T18:54:23.414Z,100216.56
2022-11-04T18:58:27.025Z,100241.78
2022-11-04T19:02:32.620Z,100241.56
2022-11-04T19:06:40.980Z,100246.00
2022-11-04T19:11:00.098Z,100250.19
2022-11-04T19:15:05.499Z,100250.63
2022-11-04T19:19:15.229Z,100245.59
2022-11-04T19:23:18.823Z,100243.31
2022-11-04T19:27:25.005Z,100257.44
2022-11-04T19:31:30.793Z,100275.09
2022-11-04T19:35:35.709Z,100273.84
2022-11-04T19:39:39.816Z,100285.19
2022-11-04T19:43:43.360Z,100302.38
2022-11-04T19:47:46.941Z,100294.00
2022-11-04T19:51:51.794Z,100296.94
2022-11-04T19:55:58.690Z,100305.97
2022-11-04T20:00:02.138Z,100309.34
2022-11-04T20:04:15.084Z,100317.09
2022-11-04T20:08:20.018Z,100318.34
2022-11-04T20:12:41.417Z,100330.34
2022-11-04T20:16:44.906Z,100340.84
2022-11-04T20:20:48.637Z,100343.56
2022-11-04T20:24:53.458Z,100343.16
2022-11-04T20:28:58.415Z,100352.84
2022-11-04T20:33:02.681Z,100353.03
2022-11-04T20:37:06.058Z,100359.13
2022-11-04T20:41:18.676Z,100365.00
2022-11-04T20:45:22.075Z,100375.50
2022-11-04T20:49:25.676Z,100375.09
2022-11-04T20:53:30.949Z,100388.13
2022-11-04T20:57:36.683Z,100391.69
2022-11-04T21:01:43.032Z,100394.84
2022-11-04T21:05:46.938Z,100416.91
2022-11-04T21:09:51.351Z,100414.38
2022-11-04T21:13:56.434Z,100418.72
2022-11-04T21:17:59.791Z,100430.88
2022-11-04T21:22:03.377Z,100446.78
2022-11-04T21:26:09.502Z,100457.72
2022-11-04T21:30:15.161Z,100456.94
2022-11-04T21:34:18.616Z,100464.28
2022-11-04T21:38:23.464Z,100463.00
2022-11-04T21:42:27.064Z,100472.63
2022-11-04T21:46:33.716Z,100478.31
2022-11-04T21:50:37.416Z,100484.41
2022-11-04T21:54:40.903Z,100481.03
2022-11-04T21:58:45.051Z,100492.44
2022-11-04T22:02:51.921Z,100491.47
2022-11-04T22:06:55.768Z,100489.84
2022-11-04T22:11:06.198Z,100491.53
2022-11-04T22:15:10.475Z,100496.19
2022-11-04T22:19:15.137Z,100496.19
2022-11-04T22:23:18.488Z,100492.06
2022-11-04T22:27:21.790Z,100502.44
2022-11-04T22:31:27.231Z,100493.88
2022-11-04T22:35:32.379Z,100504.84
2022-11-04T22:39:35.732Z,100510.13
2022-11-04T22:43:39.461Z,100507.06
2022-11-04T22:47:42.942Z,100512.75
2022-11-04T22:51:47.644Z,100516.13
2022-11-04T22:55:51.195Z,100520.19
2022-11-04T22:59:54.551Z,100523.97
2022-11-04T23:03:58.154Z,100526.41
2022-11-04T23:08:03.131Z,100527.75
2022-11-04T23:12:24.454Z,100524.84
2022-11-04T23:16:45.860Z,100521.56
2022-11-04T23:21:09.950Z,100524.94
2022-11-04T23:25:14.695Z,100533.38
2022-11-04T23:29:36.773Z,100543.59
2022-11-04T23:33:57.715Z,100532.28
2022-11-04T23:38:01.441Z,100528.91
2022-11-04T23:42:18.336Z,100527.22
2022-11-04T23:46:42.973Z,100535.16
2022-11-04T23:51:04.179Z,100536.41
2022-11-04T23:55:27.551Z,100545.22
2022-11-04T23:59:49.944Z,100546.81
